Time;durP1;ratioP1;P1;durP2;ratioP2;P2;SDS_P1;SDS_P2;PMS_P1;PMS_P2;Temp;Humidity;BMP_temperature;BMP_pressure;BME280_temperature;BME280_humidity;BME280_pressure;Samples;Min_cycle;Max_cycle;Signal;HPM_P1;HPM_P2
2023/12/06 00:00:35;;;;;;;23.07;16.73;;;2.80;99.90;;;-141.84;100.00;119224.81;5013178;28;20229;-62
2023/12/06 00:03:05;;;;;;;20.83;15.57;;;2.90;99.90;;;-141.84;100.00;119224.81;5013110;28;20697;-62
2023/12/06 00:05:33;;;;;;;23.63;16.53;;;2.90;99.90;;;-141.84;100.00;119224.81;5013701;28;20306;-63
2023/12/06 00:08:02;;;;;;;24.23;17.30;;;2.90;99.90;;;-141.84;100.00;119224.81;5012783;28;20313;-61
2023/12/06 00:10:30;;;;;;;21.50;15.60;;;3.00;99.90;;;-141.84;100.00;118956.03;5012994;28;20320;-62
2023/12/06 00:12:59;;;;;;;20.83;15.43;;;3.00;99.90;;;-141.84;100.00;118156.06;5012611;28;20316;-63
2023/12/06 00:15:27;;;;;;;21.10;15.80;;;3.00;99.90;;;-141.84;100.00;117622.84;5012823;28;20232;-61
2023/12/06 00:17:55;;;;;;;21.17;16.00;;;3.00;99.90;;;-141.84;100.00;117889.44;5012334;28;20661;-62
2023/12/06 00:20:25;;;;;;;20.97;15.63;;;3.00;99.90;;;-141.84;100.00;116556.59;5012887;28;20214;-63
2023/12/06 00:22:53;;;;;;;21.17;15.83;;;3.10;99.90;;;-141.84;100.00;115224.16;5012196;28;20233;-62
2023/12/06 00:25:22;;;;;;;21.03;15.57;;;3.10;99.90;;;-141.84;100.00;114691.31;5012749;28;20589;-63
2023/12/06 00:27:50;;;;;;;19.13;15.43;;;3.10;99.90;;;-141.84;100.00;116023.56;5012207;28;20229;-63
2023/12/06 00:30:18;;;;;;;19.60;14.60;;;3.10;99.90;;;-141.84;100.00;117089.69;5012215;28;20294;-62
2023/12/06 00:32:46;;;;;;;19.83;15.60;;;3.10;99.90;;;-141.84;100.00;117889.44;5012198;28;20322;-63
2023/12/06 00:35:15;;;;;;;20.27;14.97;;;3.10;99.90;;;-141.84;100.00;118422.72;5012829;28;20232;-62
2023/12/06 00:37:44;;;;;;;21.63;15.47;;;3.10;99.90;;;-141.84;100.00;118422.72;5012167;28;20254;-63
2023/12/06 00:40:13;;;;;;;20.93;15.60;;;3.10;99.90;;;-141.84;100.00;117089.69;5012043;28;20284;-62
2023/12/06 00:42:43;;;;;;;20.17;15.60;;;3.10;99.90;;;-141.84;100.00;115757.06;5011547;28;20714;-63
2023/12/06 00:45:11;;;;;;;20.30;14.73;;;3.20;99.90;;;-141.84;100.00;116023.56;5012013;28;20233;-62
2023/12/06 00:47:39;;;;;;;19.17;15.63;;;3.10;99.90;;;-141.84;100.00;117622.84;5012637;28;20208;-62
2023/12/06 00:50:08;;;;;;;20.60;15.97;;;3.10;99.90;;;-141.84;100.00;117356.25;5011713;28;20762;-62
2023/12/06 00:52:37;;;;;;;20.10;15.87;;;3.10;99.90;;;-141.84;100.00;118156.06;5011669;28;20215;-63
2023/12/06 00:55:08;;;;;;;22.33;16.40;;;3.10;99.90;;;-141.84;100.00;117089.69;5011771;28;20356;-62
2023/12/06 00:57:36;;;;;;;21.17;16.00;;;3.10;99.90;;;-141.84;100.00;116823.13;5011482;28;20247;-62
2023/12/06 01:00:06;;;;;;;20.80;15.97;;;3.20;99.90;;;-141.84;100.00;114691.31;5011613;28;20233;-62
2023/12/06 01:02:34;;;;;;;20.60;15.87;;;3.30;99.90;;;-141.84;100.00;114691.31;5009852;28;20809;-61
2023/12/06 01:05:05;;;;;;;22.67;16.43;;;3.20;99.90;;;-141.84;100.00;114424.91;5011678;28;20229;-62
2023/12/06 01:07:33;;;;;;;20.83;15.23;;;3.20;99.90;;;-141.84;100.00;113359.50;5000563;28;20234;-61
2023/12/06 01:10:02;;;;;;;21.00;15.73;;;3.20;99.90;;;-141.84;100.00;114424.91;4992015;28;20666;-62
2023/12/06 01:12:32;;;;;;;23.13;15.93;;;3.20;99.90;;;-141.84;100.00;116290.06;4992057;28;20250;-61
2023/12/06 01:15:00;;;;;;;21.57;15.27;;;3.20;99.90;;;-141.84;100.00;117356.25;5002958;28;20820;-62
2023/12/06 01:17:32;;;;;;;20.73;15.83;;;3.10;99.90;;;-141.84;100.00;117089.69;5010535;28;20297;-61
2023/12/06 01:20:00;;;;;;;21.40;16.00;;;3.20;99.90;;;-141.84;100.00;116823.13;5005056;28;20216;-62
2023/12/06 01:22:28;;;;;;;20.53;15.60;;;3.10;99.90;;;-141.84;100.00;117356.25;5009116;28;20312;-62
2023/12/06 01:24:58;;;;;;;20.60;15.27;;;3.10;99.90;;;-141.84;100.00;116290.06;5011484;28;20266;-62
2023/12/06 01:27:26;;;;;;;21.43;15.87;;;3.20;99.90;;;-141.84;100.00;114691.31;5011193;28;20229;-63
2023/12/06 01:29:57;;;;;;;24.80;17.17;;;3.20;99.90;;;-141.84;100.00;114957.72;5010993;28;20263;-63
2023/12/06 01:32:38;;;;;;;21.90;16.40;;;3.20;99.90;;;-141.84;100.00;111761.88;5011530;28;20323;-62
2023/12/06 01:35:08;;;;;;;21.83;15.37;;;3.30;99.90;;;-141.84;100.00;106972.81;5011241;28;20241;-62
2023/12/06 01:37:36;;;;;;;20.43;15.07;;;3.40;99.90;;;-141.84;100.00;108302.56;5011179;28;20284;-62
2023/12/06 01:40:06;;;;;;;21.93;15.70;;;3.40;99.90;;;-141.84;100.00;110431.03;5011209;28;20226;-62
2023/12/06 01:42:35;;;;;;;20.87;15.13;;;3.30;99.90;;;-141.84;100.00;113093.19;5010768;28;20315;-63
2023/12/06 01:45:05;;;;;;;23.57;16.10;;;3.20;99.90;;;-141.84;100.00;114158.53;5010574;28;20640;-65
2023/12/06 01:47:35;;;;;;;21.80;16.00;;;3.30;99.90;;;-141.84;100.00;113625.81;5011365;28;20221;-62
2023/12/06 01:50:08;;;;;;;24.90;16.50;;;3.30;99.90;;;-141.84;100.00;110963.31;5010558;28;20238;-62
2023/12/06 01:52:37;;;;;;;21.00;15.67;;;3.40;99.90;;;-141.84;100.00;110431.03;5010792;28;20275;-62
2023/12/06 01:55:06;;;;;;;21.67;15.57;;;3.40;99.90;;;-141.84;100.00;112560.63;5010633;28;20226;-62
2023/12/06 01:57:37;;;;;;;21.60;15.70;;;3.30;99.90;;;-141.84;100.00;114158.53;5010175;28;20242;-62
2023/12/06 02:00:09;;;;;;;21.33;16.23;;;3.20;99.90;;;-141.84;100.00;116556.59;5009869;28;20239;-62
2023/12/06 02:02:37;;;;;;;22.13;15.77;;;3.20;99.90;;;-141.84;100.00;117356.25;5010389;28;20210;-73
2023/12/06 02:05:06;;;;;;;22.90;16.80;;;3.20;99.90;;;-141.84;100.00;118156.06;5010850;28;20309;-73
2023/12/06 02:07:36;;;;;;;23.80;16.67;;;3.10;99.90;;;-141.84;100.00;118422.72;5001788;28;20280;-74
2023/12/06 02:10:05;;;;;;;23.30;16.20;;;3.20;99.90;;;-141.84;100.00;118956.03;4991032;28;20231;-74
2023/12/06 02:12:33;;;;;;;22.30;16.27;;;3.10;99.90;;;-141.84;100.00;118689.38;5004809;28;20761;-73
2023/12/06 02:15:01;;;;;;;22.83;16.60;;;3.20;99.90;;;-141.84;100.00;117089.69;5009928;28;20305;-73
2023/12/06 02:17:32;;;;;;;21.60;16.47;;;3.20;99.90;;;-141.84;100.00;114158.53;5011429;28;20203;-74
2023/12/06 02:20:02;;;;;;;20.80;16.53;;;3.30;99.90;;;-141.84;100.00;113359.50;5010747;28;20230;-72
2023/12/06 02:22:32;;;;;;;23.17;17.23;;;3.30;99.90;;;-141.84;100.00;112028.13;5010724;28;20518;-73
2023/12/06 02:25:05;;;;;;;23.03;16.57;;;3.30;99.90;;;-141.84;100.00;113892.16;5010714;28;20284;-73
2023/12/06 02:27:35;;;;;;;19.93;16.00;;;3.30;99.90;;;-141.84;100.00;116290.06;5012376;28;20725;-75
2023/12/06 02:30:05;;;;;;;20.87;15.20;;;3.20;99.90;;;-141.84;100.00;118422.72;5016593;28;20243;-74
2023/12/06 02:32:33;;;;;;;22.53;16.43;;;3.10;99.90;;;-141.84;100.00;119222.75;5011633;28;20272;-74
2023/12/06 02:35:04;;;;;;;23.60;16.97;;;3.10;99.90;;;-141.84;100.00;119224.81;5010336;28;20243;-62
2023/12/06 02:37:33;;;;;;;23.07;16.60;;;3.20;99.90;;;-141.84;100.00;118956.03;5010356;28;20764;-63
2023/12/06 02:40:06;;;;;;;21.50;16.03;;;3.30;99.90;;;-141.84;100.00;118956.03;5010294;28;20315;-64
2023/12/06 02:42:35;;;;;;;21.00;16.87;;;3.10;99.90;;;-141.84;100.00;119224.81;5010111;28;20237;-62
2023/12/06 02:45:05;;;;;;;20.67;15.27;;;3.10;99.90;;;-141.84;100.00;119224.81;5009996;28;20238;-62
2023/12/06 02:47:33;;;;;;;21.93;16.60;;;3.10;99.90;;;-141.84;100.00;119224.81;5010669;28;20301;-63
2023/12/06 02:50:01;;;;;;;22.47;16.70;;;3.10;99.90;;;-141.84;100.00;119224.81;5010131;28;20238;-64
2023/12/06 02:52:30;;;;;;;22.77;16.50;;;3.10;99.90;;;-141.84;100.00;119224.81;5009930;28;20317;-62
2023/12/06 02:54:58;;;;;;;23.73;16.60;;;3.10;99.90;;;-141.84;100.00;119224.81;5009759;28;20259;-62
2023/12/06 02:57:26;;;;;;;21.30;16.23;;;3.10;99.90;;;-141.84;100.00;119224.81;5009701;28;20230;-63
2023/12/06 02:59:55;;;;;;;20.93;16.30;;;3.10;99.90;;;-141.84;100.00;119224.81;5009759;28;20210;-62
2023/12/06 03:02:23;;;;;;;21.70;16.00;;;3.00;99.90;;;-141.84;100.00;119224.81;5010472;28;20245;-62
2023/12/06 03:04:52;;;;;;;22.97;16.70;;;3.10;99.90;;;-141.84;100.00;119224.81;5009586;28;20230;-62
2023/12/06 03:07:20;;;;;;;23.70;16.40;;;3.10;99.90;;;-141.84;100.00;119224.81;5009619;28;20710;-63
2023/12/06 03:09:48;;;;;;;21.37;15.80;;;3.20;99.90;;;-141.84;100.00;119224.81;5009647;28;20690;-63
2023/12/06 03:12:17;;;;;;;21.50;16.60;;;3.10;99.90;;;-141.84;100.00;119224.81;5009689;28;20284;-62
2023/12/06 03:14:45;;;;;;;20.33;15.50;;;3.30;99.90;;;-141.84;100.00;118956.03;5009384;28;20300;-62
2023/12/06 03:17:14;;;;;;;21.30;15.67;;;3.10;99.90;;;-141.84;100.00;119224.81;5010360;28;20289;-63
2023/12/06 03:19:42;;;;;;;19.93;15.30;;;3.10;99.90;;;-141.84;100.00;119224.81;5009229;28;20761;-63
2023/12/06 03:22:11;;;;;;;21.23;16.40;;;3.10;99.90;;;-141.84;100.00;119224.81;5009759;28;20250;-62
2023/12/06 03:24:39;;;;;;;20.73;16.47;;;3.10;99.90;;;-141.84;100.00;119224.81;5009782;28;20318;-62
2023/12/06 03:27:07;;;;;;;21.43;15.93;;;3.00;99.90;;;-141.84;100.00;119224.81;5013567;28;20230;-63
2023/12/06 03:29:35;;;;;;;22.70;16.50;;;3.00;99.90;;;-141.84;100.00;119224.81;5013830;28;20238;-63
2023/12/06 03:32:04;;;;;;;21.80;16.03;;;3.00;99.90;;;-141.84;100.00;119224.81;5013144;28;20274;-63
2023/12/06 03:34:34;;;;;;;20.70;16.03;;;3.00;99.90;;;-141.84;100.00;119224.81;5013480;28;20323;-64
2023/12/06 03:37:03;;;;;;;21.43;16.10;;;2.90;99.90;;;-141.84;100.00;119224.81;5013147;28;20787;-63
2023/12/06 03:39:32;;;;;;;22.43;16.03;;;3.00;99.90;;;-141.84;100.00;119224.81;5013716;28;20231;-62
2023/12/06 03:42:00;;;;;;;21.20;16.33;;;2.90;99.90;;;-141.84;100.00;119224.81;5012239;28;20197;-62
2023/12/06 03:44:27;;;;;;;21.90;16.47;;;3.00;99.90;;;-141.84;100.00;119224.81;5013810;28;20230;-61
2023/12/06 03:46:55;;;;;;;21.87;15.90;;;3.10;99.90;;;-141.84;100.00;119224.81;5003009;28;20234;-62
2023/12/06 03:49:24;;;;;;;21.40;16.20;;;3.10;99.90;;;-141.84;100.00;119224.81;4993738;28;20230;-63
2023/12/06 03:51:54;;;;;;;20.37;16.03;;;3.10;99.90;;;-141.84;100.00;119224.81;4993583;28;20262;-62
2023/12/06 03:54:23;;;;;;;22.00;16.00;;;3.00;99.90;;;-141.84;100.00;119224.81;5001227;28;20226;-63
2023/12/06 03:56:51;;;;;;;22.17;16.70;;;3.20;99.90;;;-141.84;100.00;119224.81;5013885;28;20235;-63
2023/12/06 03:59:19;;;;;;;21.20;15.90;;;3.10;99.90;;;-141.84;100.00;119224.81;5013513;28;20630;-62
2023/12/06 04:01:47;;;;;;;21.03;15.93;;;3.10;99.90;;;-141.84;100.00;119224.81;5013116;28;20746;-63
2023/12/06 04:04:15;;;;;;;20.07;15.30;;;3.10;99.90;;;-141.84;100.00;119224.81;5012903;28;20221;-62
2023/12/06 04:06:44;;;;;;;20.43;16.03;;;3.10;99.90;;;-141.84;100.00;119224.81;5013415;28;20230;-62
2023/12/06 04:09:14;;;;;;;20.77;15.33;;;3.00;99.90;;;-141.84;100.00;119224.81;5013052;28;20261;-62
2023/12/06 04:11:42;;;;;;;22.07;17.10;;;3.00;99.90;;;-141.84;100.00;119224.81;5013058;28;20264;-62
2023/12/06 04:14:10;;;;;;;20.50;15.10;;;3.10;99.90;;;-141.84;100.00;119224.81;5012956;28;20635;-63
2023/12/06 04:16:38;;;;;;;19.57;15.67;;;3.10;99.90;;;-141.84;100.00;119224.81;5012314;28;20665;-61
2023/12/06 04:19:06;;;;;;;21.60;15.93;;;3.10;99.90;;;-141.84;100.00;119224.81;5012409;28;20233;-61
2023/12/06 04:21:34;;;;;;;21.07;15.90;;;3.10;99.90;;;-141.84;100.00;119224.81;5012641;28;20596;-62
2023/12/06 04:24:03;;;;;;;22.27;15.37;;;3.10;99.90;;;-141.84;100.00;119224.81;5012572;28;20654;-63
2023/12/06 04:26:33;;;;;;;19.93;15.70;;;3.30;99.90;;;-141.84;100.00;118422.72;5013142;28;20886;-62
2023/12/06 04:29:01;;;;;;;20.57;14.93;;;3.30;99.90;;;-141.84;100.00;118422.72;5011027;28;20656;-62
2023/12/06 04:31:29;;;;;;;20.63;15.60;;;3.30;99.90;;;-141.84;100.00;116823.13;5003854;28;20241;-62
2023/12/06 04:33:57;;;;;;;21.17;15.33;;;3.30;99.90;;;-141.84;100.00;117622.84;5012063;28;20314;-62
2023/12/06 04:36:26;;;;;;;21.67;15.07;;;3.30;99.90;;;-141.84;100.00;118422.72;5011861;28;20219;-61
2023/12/06 04:38:55;;;;;;;19.53;15.90;;;3.30;99.90;;;-141.84;100.00;117356.25;5011693;28;20208;-63
2023/12/06 04:41:23;;;;;;;22.53;15.57;;;3.30;99.90;;;-141.84;100.00;118156.06;5012553;28;20201;-63
2023/12/06 04:43:53;;;;;;;19.47;14.93;;;3.30;99.90;;;-141.84;100.00;118956.03;5011839;28;20257;-61
2023/12/06 04:46:21;;;;;;;20.90;15.33;;;3.20;99.90;;;-141.84;100.00;119224.81;5012138;28;20280;-63
2023/12/06 04:48:49;;;;;;;20.10;14.60;;;3.30;99.90;;;-141.84;100.00;118956.03;5012047;28;20736;-62
2023/12/06 04:51:18;;;;;;;19.20;14.87;;;3.30;99.90;;;-141.84;100.00;119224.81;5012031;28;20245;-63
2023/12/06 04:53:46;;;;;;;19.00;14.20;;;3.20;99.90;;;-141.84;100.00;119224.81;5012008;28;20198;-62
2023/12/06 04:56:15;;;;;;;17.70;13.50;;;3.20;99.90;;;-141.84;100.00;119224.81;5012277;28;20293;-62
2023/12/06 04:58:43;;;;;;;18.37;14.10;;;3.30;99.90;;;-141.84;100.00;119224.81;5011579;28;20276;-63
2023/12/06 05:01:13;;;;;;;17.73;13.50;;;3.30;99.90;;;-141.84;100.00;119222.75;5011681;28;20414;-61
2023/12/06 05:03:41;;;;;;;18.60;13.97;;;3.30;99.90;;;-141.84;100.00;119224.81;5012077;28;20249;-62
2023/12/06 05:06:09;;;;;;;19.33;14.33;;;3.20;99.90;;;-141.84;100.00;119224.81;5011724;28;20225;-61
2023/12/06 05:08:37;;;;;;;19.50;14.77;;;3.30;99.90;;;-141.84;100.00;119222.75;5011937;28;20208;-62
2023/12/06 05:11:06;;;;;;;18.87;13.93;;;3.30;99.90;;;-141.84;100.00;118422.72;5011578;28;20258;-62
2023/12/06 05:13:34;;;;;;;17.10;12.90;;;3.30;99.90;;;-141.84;100.00;117089.69;5010961;28;20735;-63
2023/12/06 05:16:03;;;;;;;19.47;14.57;;;3.30;99.90;;;-141.84;100.00;117889.44;5011585;28;20302;-63
2023/12/06 05:18:33;;;;;;;17.53;13.97;;;3.30;99.90;;;-141.84;100.00;116290.06;5011202;28;20230;-62
2023/12/06 05:21:01;;;;;;;22.43;16.33;;;3.40;99.90;;;-141.84;100.00;116556.59;5011635;28;20255;-62
2023/12/06 05:23:29;;;;;;;20.47;14.63;;;3.40;99.90;;;-141.84;100.00;117622.84;5011690;28;20247;-63
2023/12/06 05:25:58;;;;;;;17.10;13.17;;;3.30;99.90;;;-141.84;100.00;118422.72;5011213;28;20261;-62
2023/12/06 05:28:26;;;;;;;19.40;14.27;;;3.30;99.90;;;-141.84;100.00;118956.03;5010655;28;20736;-63
2023/12/06 05:30:54;;;;;;;17.10;13.17;;;3.30;99.90;;;-141.84;100.00;118156.06;5011239;28;20255;-63
2023/12/06 05:33:23;;;;;;;17.97;14.47;;;3.30;99.90;;;-141.84;100.00;118422.72;5010836;28;20630;-62
2023/12/06 05:35:52;;;;;;;18.57;14.50;;;3.30;99.90;;;-141.84;100.00;118956.03;5011129;28;20207;-62
2023/12/06 05:38:20;;;;;;;18.43;13.57;;;3.30;99.90;;;-141.84;100.00;119222.75;5011312;28;20253;-61
2023/12/06 05:40:50;;;;;;;18.27;13.20;;;3.20;99.90;;;-141.84;100.00;119224.81;5010992;28;20728;-63
2023/12/06 05:43:18;;;;;;;17.70;13.40;;;3.20;99.90;;;-141.84;100.00;119224.81;5010777;28;20252;-63
2023/12/06 05:45:46;;;;;;;17.50;13.47;;;3.20;99.90;;;-141.84;100.00;119222.75;5011135;28;20234;-63
2023/12/06 05:48:15;;;;;;;18.13;13.47;;;3.20;99.90;;;-141.84;100.00;119224.81;5010532;28;20231;-63
2023/12/06 05:50:43;;;;;;;17.57;13.00;;;3.20;99.90;;;-141.84;100.00;118956.03;5010707;28;20242;-65
2023/12/06 05:53:13;;;;;;;16.40;12.20;;;3.30;99.90;;;-141.84;100.00;118689.38;5010825;28;20225;-62
2023/12/06 05:55:41;;;;;;;14.90;12.03;;;3.20;99.90;;;-141.84;100.00;118689.38;5010118;28;20228;-62
2023/12/06 05:58:09;;;;;;;15.77;12.47;;;3.20;99.90;;;-141.84;100.00;117356.25;5010024;28;20317;-62
2023/12/06 06:00:38;;;;;;;16.43;12.10;;;3.30;99.90;;;-141.84;100.00;116823.13;5010506;28;20229;-62
2023/12/06 06:03:06;;;;;;;16.63;13.50;;;3.30;99.90;;;-141.84;100.00;117356.25;5010434;28;20391;-62
2023/12/06 06:05:34;;;;;;;15.60;12.27;;;3.30;99.90;;;-141.84;100.00;115490.59;5010868;28;20214;-62
2023/12/06 06:08:03;;;;;;;15.87;12.57;;;3.40;99.90;;;-141.84;100.00;113892.16;5010041;28;20230;-62
2023/12/06 06:10:32;;;;;;;15.17;11.83;;;3.40;99.90;;;-141.84;100.00;115224.16;5010352;28;20234;-63
2023/12/06 06:13:01;;;;;;;16.47;12.70;;;3.30;99.90;;;-141.84;100.00;116823.13;5010022;28;20243;-63
2023/12/06 06:15:29;;;;;;;15.70;12.57;;;3.30;99.90;;;-141.84;100.00;117356.25;5009915;28;20615;-63
2023/12/06 06:17:57;;;;;;;15.50;13.10;;;3.30;99.90;;;-141.84;100.00;118422.72;5010185;28;20202;-64
2023/12/06 06:20:25;;;;;;;16.43;12.97;;;3.20;99.90;;;-141.84;100.00;117356.25;5010312;28;20757;-62
2023/12/06 06:22:54;;;;;;;15.13;11.73;;;3.30;99.90;;;-141.84;100.00;113625.81;5009792;28;20232;-63
2023/12/06 06:25:22;;;;;;;15.23;11.80;;;3.40;99.90;;;-141.84;100.00;115224.16;5010352;28;20254;-63
2023/12/06 06:27:53;;;;;;;16.20;12.40;;;3.30;99.90;;;-141.84;100.00;115224.16;5010810;28;20243;-73
2023/12/06 06:30:21;;;;;;;14.17;11.37;;;3.30;99.90;;;-141.84;100.00;116290.06;5010731;28;20717;-74
2023/12/06 06:32:49;;;;;;;15.07;12.10;;;3.20;99.90;;;-141.84;100.00;117089.69;5010253;28;20325;-73
2023/12/06 06:35:17;;;;;;;17.13;12.13;;;3.30;99.90;;;-141.84;100.00;117622.84;5010075;28;20551;-75
2023/12/06 06:37:46;;;;;;;15.97;12.00;;;3.30;99.90;;;-141.84;100.00;114957.72;5004854;28;20308;-73
2023/12/06 06:40:15;;;;;;;15.53;12.37;;;3.30;99.90;;;-141.84;100.00;115757.06;5010378;28;20229;-74
2023/12/06 06:42:45;;;;;;;16.73;12.00;;;3.30;99.90;;;-141.84;100.00;117356.25;5006068;28;20705;-73
2023/12/06 06:45:15;;;;;;;16.40;12.33;;;3.40;99.90;;;-141.84;100.00;118422.72;4997465;28;20230;-73
2023/12/06 06:47:44;;;;;;;16.20;12.50;;;3.20;99.90;;;-141.84;100.00;118956.03;5010321;28;20296;-72
2023/12/06 06:50:15;;;;;;;17.50;12.17;;;3.20;99.90;;;-141.84;100.00;118956.03;5010536;28;20211;-74
2023/12/06 06:52:47;;;;;;;18.30;12.80;;;3.20;99.90;;;-141.84;100.00;118156.06;5009761;28;20222;-74
2023/12/06 06:55:15;;;;;;;15.10;11.77;;;3.30;99.90;;;-141.84;100.00;114957.72;5009542;28;20307;-73
2023/12/06 06:57:44;;;;;;;16.83;12.30;;;3.40;99.90;;;-141.84;100.00;115224.16;5009591;28;20264;-72
2023/12/06 07:00:14;;;;;;;17.03;12.37;;;3.30;99.90;;;-141.84;100.00;116556.59;5009195;28;20546;-72
2023/12/06 07:02:44;;;;;;;15.30;11.53;;;3.30;99.90;;;-141.84;100.00;117889.44;5010567;28;20186;-71
2023/12/06 07:05:13;;;;;;;14.67;11.43;;;3.30;99.90;;;-141.84;100.00;118689.38;5010374;28;20218;-74
2023/12/06 07:07:42;;;;;;;16.50;12.20;;;3.30;99.90;;;-141.84;100.00;119222.75;5010118;28;20238;-73
2023/12/06 07:10:11;;;;;;;15.27;11.73;;;3.30;99.90;;;-141.84;100.00;118689.38;5009984;28;20234;-75
2023/12/06 07:12:40;;;;;;;15.57;12.13;;;3.30;99.90;;;-141.84;100.00;119222.75;5009839;28;20303;-73
2023/12/06 07:15:14;;;;;;;15.57;12.17;;;3.20;99.90;;;-141.84;100.00;119224.81;5009766;28;20237;-72
2023/12/06 07:17:46;;;;;;;15.17;12.43;;;3.20;99.90;;;-141.84;100.00;119224.81;5009976;28;20662;-73
2023/12/06 07:20:17;;;;;;;16.03;12.13;;;3.20;99.90;;;-141.84;100.00;119224.81;5009625;28;20279;-73
2023/12/06 07:22:45;;;;;;;15.80;11.73;;;3.20;99.90;;;-141.84;100.00;119224.81;5009627;28;20332;-74
2023/12/06 07:25:15;;;;;;;16.83;12.37;;;3.20;99.90;;;-141.84;100.00;119224.81;5006788;28;20249;-70
2023/12/06 07:27:45;;;;;;;15.80;11.83;;;3.20;99.90;;;-141.84;100.00;119224.81;5008867;28;20234;-71
2023/12/06 07:30:16;;;;;;;16.30;11.93;;;3.20;99.90;;;-141.84;100.00;119224.81;5007617;28;20239;-70
2023/12/06 07:32:46;;;;;;;14.83;11.60;;;3.20;99.90;;;-141.84;100.00;119224.81;5009315;28;20329;-71
2023/12/06 07:35:22;;;;;;;15.73;11.87;;;3.20;99.90;;;-141.84;100.00;119224.81;5010175;28;20352;-70
2023/12/06 07:37:51;;;;;;;13.77;10.93;;;3.20;99.90;;;-141.84;100.00;119224.81;5009354;28;20306;-70
2023/12/06 07:40:20;;;;;;;14.30;11.17;;;3.20;99.90;;;-141.84;100.00;119224.81;5009386;28;20320;-71
2023/12/06 07:42:49;;;;;;;14.80;10.50;;;3.30;99.90;;;-141.84;100.00;119224.81;5026266;28;20228;-71
2023/12/06 07:45:18;;;;;;;13.63;10.23;;;3.30;99.90;;;-141.84;100.00;119224.81;5029776;28;20225;-71
2023/12/06 07:47:48;;;;;;;13.17;10.57;;;3.30;99.90;;;-141.84;100.00;119224.81;5029291;28;20205;-71
2023/12/06 07:50:17;;;;;;;14.33;10.80;;;3.30;99.90;;;-141.84;100.00;119224.81;5013184;28;20256;-71
2023/12/06 07:52:45;;;;;;;12.97;10.43;;;3.30;99.90;;;-141.84;100.00;119224.81;5009070;28;20249;-72
2023/12/06 07:55:14;;;;;;;13.27;10.57;;;3.30;99.90;;;-141.84;100.00;119224.81;5008988;28;20615;-72
2023/12/06 07:57:43;;;;;;;13.20;10.33;;;3.30;99.90;;;-141.84;100.00;119224.81;5009063;28;20230;-70
2023/12/06 08:00:13;;;;;;;11.50;9.47;;;3.30;99.90;;;-141.84;100.00;118689.38;5020877;28;20253;-70
2023/12/06 08:02:42;;;;;;;11.97;9.53;;;3.40;99.90;;;-141.84;100.00;116290.06;5009787;28;20262;-71
2023/12/06 08:05:12;;;;;;;10.77;9.63;;;3.40;99.90;;;-141.84;100.00;115224.16;5009581;28;20218;-72
2023/12/06 08:07:41;;;;;;;11.50;8.77;;;3.40;99.90;;;-141.84;100.00;112294.34;5009130;28;20219;-71
2023/12/06 08:10:12;;;;;;;11.70;9.27;;;3.40;99.90;;;-141.84;100.00;113625.81;5009580;28;20253;-71
2023/12/06 08:12:41;;;;;;;12.63;10.20;;;3.40;99.90;;;-141.84;100.00;115224.16;5010751;28;20241;-71
2023/12/06 08:15:10;;;;;;;14.00;10.60;;;3.40;99.90;;;-141.84;100.00;115757.06;5012691;28;20236;-71
2023/12/06 08:17:38;;;;;;;11.93;9.83;;;3.40;99.90;;;-141.84;100.00;116556.59;5013310;28;20574;-70
2023/12/06 08:20:08;;;;;;;10.47;8.30;;;3.40;99.90;;;-141.84;100.00;117356.25;5012105;28;20230;-70
2023/12/06 08:22:38;;;;;;;8.37;7.37;;;3.40;99.90;;;-141.84;100.00;116556.59;5012388;28;20227;-70
2023/12/06 08:25:07;;;;;;;8.07;7.10;;;3.50;99.90;;;-141.84;100.00;114424.91;5012131;28;20226;-71
2023/12/06 08:27:35;;;;;;;8.70;7.77;;;3.50;99.90;;;-141.84;100.00;112826.88;5012164;28;20234;-72
2023/12/06 08:30:08;;;;;;;8.70;7.80;;;3.50;99.90;;;-141.84;100.00;113625.81;5012248;28;20222;-71
2023/12/06 08:32:36;;;;;;;8.37;6.63;;;3.50;99.90;;;-141.84;100.00;114957.72;5012857;28;20269;-71
2023/12/06 08:35:05;;;;;;;8.23;6.97;;;3.50;99.90;;;-141.84;100.00;116290.06;5012043;28;20337;-70
2023/12/06 08:37:33;;;;;;;5.90;5.30;;;3.50;99.90;;;-141.84;100.00;116023.56;5012548;28;20725;-70
2023/12/06 08:40:06;;;;;;;5.50;5.00;;;3.50;99.90;;;-141.84;100.00;114957.72;5012239;28;20231;-71
2023/12/06 08:42:35;;;;;;;6.07;5.47;;;3.60;99.90;;;-141.84;100.00;114158.53;5011970;28;20242;-70
2023/12/06 08:45:03;;;;;;;6.40;5.80;;;3.60;99.90;;;-141.84;100.00;111761.88;5011582;28;20257;-70
2023/12/06 08:47:35;;;;;;;5.97;5.23;;;3.60;99.90;;;-141.84;100.00;113093.19;5012885;28;20511;-71
2023/12/06 08:50:04;;;;;;;5.80;5.20;;;3.50;99.90;;;-141.84;100.00;113892.16;5011634;28;20241;-70
2023/12/06 08:52:35;;;;;;;7.00;5.40;;;3.60;99.90;;;-141.84;100.00;111495.69;5016601;28;20241;-70
2023/12/06 08:55:06;;;;;;;5.53;4.90;;;3.60;99.90;;;-141.84;100.00;110697.16;5012776;28;20307;-70
2023/12/06 08:57:40;;;;;;;6.00;5.17;;;3.70;99.90;;;-141.84;100.00;110963.31;5003619;28;20230;-73
2023/12/06 09:00:12;;;;;;;5.43;4.93;;;3.70;99.90;;;-141.84;100.00;111495.69;5011659;28;20233;-71
2023/12/06 09:02:42;;;;;;;5.93;5.33;;;3.50;99.90;;;-141.84;100.00;111229.50;5012567;28;20187;-70
2023/12/06 09:05:11;;;;;;;5.23;4.73;;;3.70;99.90;;;-141.84;100.00;110963.31;5011830;28;20224;-71
2023/12/06 09:07:42;;;;;;;6.33;5.47;;;3.70;99.90;;;-141.84;100.00;108834.56;5012038;28;20225;-70
2023/12/06 09:10:12;;;;;;;5.03;4.47;;;3.70;99.90;;;-141.84;100.00;109366.66;5011715;28;20752;-71
2023/12/06 09:12:40;;;;;;;5.87;5.17;;;3.70;99.90;;;-141.84;100.00;108834.56;5011791;28;20230;-71
2023/12/06 09:15:12;;;;;;;5.20;4.70;;;3.70;99.90;;;-141.84;100.00;109100.59;5011814;28;20252;-71
2023/12/06 09:17:41;;;;;;;6.33;5.73;;;3.80;99.90;;;-141.84;100.00;107238.72;5012431;28;20229;-69
2023/12/06 09:20:11;;;;;;;5.93;5.43;;;3.70;99.90;;;-141.84;100.00;104314.66;4992519;28;20553;-70
2023/12/06 09:22:39;;;;;;;5.10;4.60;;;3.80;99.90;;;-141.84;100.00;100065.22;5006991;28;20583;-70
2023/12/06 09:25:08;;;;;;;5.50;5.00;;;3.80;99.90;;;-141.84;100.00;96350.63;5012406;28;20225;-70
2023/12/06 09:27:38;;;;;;;4.83;4.43;;;3.70;99.90;;;-141.84;100.00;93964.47;5015420;28;20585;-70
2023/12/06 09:30:09;;;;;;;5.13;4.40;;;3.80;99.90;;;-141.84;100.00;95024.81;5011105;28;20226;-71
2023/12/06 09:32:37;;;;;;;4.80;4.30;;;3.80;99.90;;;-141.84;100.00;95555.09;5011409;28;20317;-70
2023/12/06 09:35:08;;;;;;;4.00;3.60;;;3.80;99.90;;;-141.84;100.00;92904.41;5011032;28;20729;-72
2023/12/06 09:37:36;;;;;;;4.17;3.77;;;3.80;99.90;;;-141.84;100.00;92374.47;5007891;28;20233;-70
2023/12/06 09:40:06;;;;;;;4.30;3.90;;;3.80;99.90;;;-141.84;100.00;94759.69;5017088;28;20225;-71
2023/12/06 09:42:43;;;;;;;4.00;3.53;;;3.80;99.90;;;-141.84;100.00;91844.63;5011203;28;20597;-72
2023/12/06 09:45:13;;;;;;;4.27;3.87;;;3.80;99.90;;;-141.84;100.00;89725.88;5005712;28;20245;-73
2023/12/06 09:47:44;;;;;;;3.33;3.00;;;3.90;99.90;;;-141.84;100.00;91844.63;5008801;28;20764;-75
2023/12/06 09:50:12;;;;;;;3.40;3.10;;;3.80;99.90;;;-141.84;100.00;96085.44;5010006;28;20487;-80
2023/12/06 09:52:40;;;;;;;3.00;2.70;;;3.80;99.90;;;-141.84;100.00;99799.78;5010799;28;20217;-79
2023/12/06 09:55:09;;;;;;;3.43;3.13;;;3.80;99.90;;;-141.84;100.00;101658.25;5006665;28;20280;-78
2023/12/06 09:57:39;;;;;;;3.60;2.70;;;3.90;99.90;;;-141.84;100.00;92639.44;5011514;28;20222;-78